Time;durP1;ratioP1;P1;durP2;ratioP2;P2;SDS_P1;SDS_P2;PMS_P1;PMS_P2;Temp;Humidity;BMP_temperature;BMP_pressure;BME280_temperature;BME280_humidity;BME280_pressure;Samples;Min_cycle;Max_cycle;Signal;HPM_P1;HPM_P2
2023/12/03 00:03:45;;;;;;;4.00;3.60;;;1.10;42.00;;;;;;10383129;28;20284;-72
2023/12/03 00:08:50;;;;;;;4.53;4.13;;;1.10;41.70;;;;;;10384522;28;20262;-72
2023/12/03 00:13:54;;;;;;;4.23;3.83;;;1.10;41.60;;;;;;10354351;28;20245;-71
2023/12/03 00:18:58;;;;;;;4.83;4.43;;;1.20;41.80;;;;;;10387025;28;20225;-70
2023/12/03 00:24:03;;;;;;;3.93;3.63;;;1.20;41.80;;;;;;10383252;28;20237;-70
2023/12/03 00:29:06;;;;;;;4.20;3.80;;;1.30;41.60;;;;;;10382502;28;20368;-71
2023/12/03 00:34:09;;;;;;;4.50;3.87;;;1.20;41.50;;;;;;10381626;28;20239;-71
2023/12/03 00:39:13;;;;;;;3.77;3.47;;;1.20;41.60;;;;;;10388576;28;20229;-71
2023/12/03 00:44:18;;;;;;;4.83;4.43;;;1.20;41.60;;;;;;10380423;28;20739;-70
2023/12/03 00:49:21;;;;;;;4.73;4.33;;;1.10;41.60;;;;;;10382587;28;20230;-70
2023/12/03 00:54:26;;;;;;;5.20;4.70;;;1.10;41.90;;;;;;10377377;28;20245;-70
2023/12/03 00:59:29;;;;;;;5.60;5.20;;;1.00;41.60;;;;;;10377896;28;20237;-70
2023/12/03 01:04:32;;;;;;;5.37;4.87;;;0.90;41.70;;;;;;10379135;28;20241;-71
2023/12/03 01:09:37;;;;;;;5.40;4.90;;;0.90;41.90;;;;;;10383507;28;20704;-70
2023/12/03 01:14:40;;;;;;;5.53;5.03;;;0.90;42.00;;;;;;10379365;28;20240;-71
2023/12/03 01:19:43;;;;;;;5.53;5.03;;;0.90;42.00;;;;;;10383497;28;20226;-72
2023/12/03 01:24:48;;;;;;;5.30;4.80;;;0.90;42.00;;;;;;10382219;28;20242;-72
2023/12/03 01:29:51;;;;;;;5.47;5.00;;;0.90;42.00;;;;;;10381322;28;20232;-72
2023/12/03 01:34:55;;;;;;;5.50;5.00;;;1.00;42.10;;;;;;10377824;28;20613;-71
2023/12/03 01:39:59;;;;;;;5.50;5.00;;;1.00;42.10;;;;;;10381352;28;20280;-72
2023/12/03 01:45:03;;;;;;;6.63;5.33;;;1.00;42.00;;;;;;10387136;28;20245;-72
2023/12/03 01:50:09;;;;;;;6.57;5.97;;;0.80;42.20;;;;;;10388880;28;20225;-71
2023/12/03 01:55:17;;;;;;;5.47;4.97;;;0.90;42.20;;;;;;10384912;28;20918;-72
2023/12/03 02:00:20;;;;;;;6.00;5.43;;;0.90;42.10;;;;;;10383611;28;20234;-71
2023/12/03 02:05:23;;;;;;;5.60;5.10;;;0.80;42.20;;;;;;10383154;28;20233;-71
2023/12/03 02:10:28;;;;;;;6.43;5.40;;;0.80;42.30;;;;;;10386912;28;20234;-71
2023/12/03 02:15:31;;;;;;;5.47;4.97;;;0.80;42.10;;;;;;10385975;28;20241;-72
2023/12/03 02:20:34;;;;;;;5.47;4.97;;;0.80;42.00;;;;;;10389693;28;20229;-72
2023/12/03 02:25:39;;;;;;;5.87;5.27;;;0.80;41.90;;;;;;10401230;28;20312;-70
2023/12/03 02:30:42;;;;;;;5.07;4.57;;;0.80;41.80;;;;;;10408575;28;20221;-70
2023/12/03 02:35:46;;;;;;;5.67;5.10;;;0.70;41.60;;;;;;10408387;28;20260;-70
2023/12/03 02:40:50;;;;;;;5.90;5.13;;;0.60;41.60;;;;;;10408558;28;20304;-71
2023/12/03 02:45:53;;;;;;;5.30;4.80;;;0.60;41.50;;;;;;10408436;28;20267;-71
2023/12/03 02:50:56;;;;;;;5.63;4.57;;;0.60;41.60;;;;;;10407358;28;20233;-70
2023/12/03 02:56:01;;;;;;;4.93;4.53;;;0.70;41.70;;;;;;10407305;28;20735;-71
2023/12/03 03:01:06;;;;;;;5.00;4.50;;;0.60;41.60;;;;;;10407411;28;20605;-71
2023/12/03 03:06:09;;;;;;;5.03;4.53;;;0.60;41.70;;;;;;10407374;28;20287;-70
2023/12/03 03:11:14;;;;;;;5.37;4.87;;;0.60;41.80;;;;;;10407672;28;20238;-70
2023/12/03 03:16:17;;;;;;;5.37;4.87;;;0.60;41.70;;;;;;10407150;28;20244;-70
2023/12/03 03:21:21;;;;;;;5.20;4.80;;;0.60;41.80;;;;;;10406443;28;20726;-71
2023/12/03 03:26:25;;;;;;;5.33;4.87;;;0.60;41.80;;;;;;10407114;28;20233;-70
2023/12/03 03:31:28;;;;;;;5.17;4.67;;;0.60;41.90;;;;;;10406861;28;20956;-70
2023/12/03 03:36:32;;;;;;;5.37;4.87;;;0.60;42.00;;;;;;10406422;28;20245;-71
2023/12/03 03:41:37;;;;;;;5.53;4.90;;;0.60;42.00;;;;;;10405988;28;20256;-70
2023/12/03 03:46:41;;;;;;;5.03;4.53;;;0.70;41.80;;;;;;10406142;28;20229;-71
2023/12/03 03:51:44;;;;;;;5.70;5.20;;;0.70;41.70;;;;;;10405855;28;20249;-71
2023/12/03 03:56:48;;;;;;;5.80;5.07;;;0.70;41.60;;;;;;10405383;28;20241;-70
2023/12/03 04:01:52;;;;;;;5.63;5.13;;;0.70;41.50;;;;;;10405706;28;20240;-71
2023/12/03 04:06:56;;;;;;;6.40;5.80;;;0.70;41.40;;;;;;10405489;28;20764;-70
2023/12/03 04:12:01;;;;;;;6.30;5.30;;;0.60;41.30;;;;;;10404436;28;20226;-70
2023/12/03 04:17:05;;;;;;;5.40;4.90;;;0.60;41.30;;;;;;10404487;28;20322;-71
2023/12/03 04:22:09;;;;;;;6.83;5.90;;;0.50;41.30;;;;;;10404481;28;20233;-71
2023/12/03 04:27:13;;;;;;;8.87;7.30;;;0.50;41.40;;;;;;10404133;28;20240;-70
2023/12/03 04:32:16;;;;;;;10.60;7.93;;;0.40;41.40;;;;;;10404352;28;20276;-70
2023/12/03 04:37:19;;;;;;;9.03;7.87;;;0.40;41.60;;;;;;10403900;28;20234;-70
2023/12/03 04:42:24;;;;;;;6.73;6.03;;;0.40;41.50;;;;;;10403109;28;20675;-70
2023/12/03 04:47:28;;;;;;;5.87;5.37;;;0.30;41.30;;;;;;10403588;28;20233;-70
2023/12/03 04:52:32;;;;;;;5.67;5.17;;;0.20;41.60;;;;;;10403651;28;20233;-70
2023/12/03 04:57:36;;;;;;;4.97;4.50;;;0.20;41.70;;;;;;10402974;28;20226;-70
2023/12/03 05:02:40;;;;;;;5.17;4.77;;;0.20;41.60;;;;;;10402733;28;20799;-70
2023/12/03 05:07:43;;;;;;;5.27;4.67;;;0.20;41.80;;;;;;10402972;28;20229;-70
2023/12/03 05:12:48;;;;;;;4.83;4.37;;;0.30;41.80;;;;;;10402829;28;20320;-70
2023/12/03 05:17:51;;;;;;;4.63;4.23;;;0.20;41.60;;;;;;10402198;28;20276;-70
2023/12/03 05:22:54;;;;;;;5.43;4.93;;;0.20;41.70;;;;;;10402377;28;20823;-70
2023/12/03 05:27:58;;;;;;;5.77;5.00;;;0.10;41.70;;;;;;10401980;28;20778;-70
2023/12/03 05:33:02;;;;;;;6.20;5.40;;;0.10;41.90;;;;;;10402142;28;20258;-70
2023/12/03 05:38:06;;;;;;;6.03;5.43;;;0.10;41.90;;;;;;10402813;28;20321;-70
2023/12/03 05:43:10;;;;;;;6.23;5.63;;;0.10;41.90;;;;;;10402193;28;20775;-70
2023/12/03 05:48:13;;;;;;;6.97;5.90;;;0.10;41.80;;;;;;10402220;28;20609;-70
2023/12/03 05:53:17;;;;;;;5.43;4.93;;;0.00;41.60;;;;;;10402521;28;20233;-70
2023/12/03 05:58:21;;;;;;;6.87;6.17;;;0.00;41.50;;;;;;10401951;28;20260;-70
2023/12/03 06:03:24;;;;;;;6.03;5.43;;;-0.10;41.40;;;;;;10401154;28;20854;-70
2023/12/03 06:08:28;;;;;;;7.07;6.37;;;-0.20;41.40;;;;;;10401940;28;20268;-70
2023/12/03 06:13:33;;;;;;;7.00;6.30;;;-0.20;41.40;;;;;;10402053;28;20728;-70
2023/12/03 06:18:36;;;;;;;6.70;6.00;;;-0.30;41.50;;;;;;10401417;28;20313;-70
2023/12/03 06:23:39;;;;;;;6.43;5.73;;;-0.30;41.40;;;;;;10401485;28;20237;-70
2023/12/03 06:28:44;;;;;;;7.43;6.53;;;-0.30;41.50;;;;;;10402391;28;20239;-70
2023/12/03 06:33:47;;;;;;;8.20;7.07;;;-0.30;41.80;;;;;;10408567;28;20244;-70
2023/12/03 06:38:50;;;;;;;8.93;7.77;;;-0.30;41.70;;;;;;10409017;28;20233;-70
2023/12/03 06:43:55;;;;;;;7.60;6.80;;;-0.20;41.80;;;;;;10408408;28;20316;-70
2023/12/03 06:48:58;;;;;;;7.30;6.60;;;-0.10;41.60;;;;;;10408070;28;20233;-70
2023/12/03 06:54:02;;;;;;;7.97;7.17;;;0.00;41.40;;;;;;10408241;28;20320;-70
2023/12/03 06:59:06;;;;;;;8.77;7.10;;;0.00;41.70;;;;;;10407342;28;20225;-70
2023/12/03 07:04:10;;;;;;;8.57;7.73;;;-0.10;40.80;;;;;;10406150;28;20317;-70
2023/12/03 07:09:14;;;;;;;7.60;6.87;;;-0.10;40.80;;;;;;10407227;28;20750;-70
2023/12/03 07:14:39;;;;;;;7.83;7.03;;;-0.30;40.60;;;;;;10406981;28;20252;-70
2023/12/03 07:19:43;;;;;;;8.43;7.60;;;-0.40;40.60;;;;;;10407201;28;20236;-70
2023/12/03 07:24:47;;;;;;;9.57;8.33;;;-0.50;40.80;;;;;;10406490;28;20250;-70
2023/12/03 07:29:55;;;;;;;9.60;8.57;;;-0.60;41.10;;;;;;10407140;28;20245;-70
2023/12/03 07:34:58;;;;;;;9.33;8.13;;;-0.50;41.00;;;;;;10406691;28;20264;-70
2023/12/03 07:40:01;;;;;;;7.77;7.07;;;-0.50;41.00;;;;;;10405632;28;20233;-70
2023/12/03 07:45:07;;;;;;;7.77;7.00;;;-0.50;41.20;;;;;;10405934;28;20245;-70
2023/12/03 07:50:11;;;;;;;10.87;8.07;;;-0.50;41.30;;;;;;10405935;28;20257;-70
2023/12/03 07:55:16;;;;;;;9.53;7.50;;;-0.40;41.50;;;;;;10405320;28;20321;-70
2023/12/03 08:00:21;;;;;;;9.03;8.13;;;-0.30;41.40;;;;;;10405888;28;20655;-70
2023/12/03 08:05:24;;;;;;;9.03;8.00;;;-0.20;41.60;;;;;;10405582;28;20245;-70
2023/12/03 08:10:28;;;;;;;8.93;8.03;;;0.00;41.60;;;;;;10404946;28;20627;-70
2023/12/03 08:15:32;;;;;;;9.00;8.07;;;0.20;41.90;;;;;;10404999;28;20241;-70
2023/12/03 08:20:36;;;;;;;7.70;7.00;;;0.40;41.80;;;;;;10404817;28;20233;-70
2023/12/03 08:25:39;;;;;;;15.23;12.77;;;0.70;41.90;;;;;;10404510;28;20750;-70
2023/12/03 08:30:43;;;;;;;14.63;12.17;;;0.90;42.40;;;;;;10403990;28;20257;-70
2023/12/03 08:35:47;;;;;;;10.37;9.27;;;1.10;41.80;;;;;;10404399;28;20594;-70
2023/12/03 08:40:50;;;;;;;12.37;9.80;;;1.30;41.80;;;;;;10403725;28;20244;-71
2023/12/03 08:45:54;;;;;;;9.73;8.73;;;1.60;41.80;;;;;;10403120;28;20242;-71
2023/12/03 08:50:58;;;;;;;10.83;9.73;;;1.80;41.30;;;;;;10402980;28;20238;-71
2023/12/03 08:56:02;;;;;;;11.77;10.67;;;2.00;41.10;;;;;;10401512;28;20313;-71
2023/12/03 09:01:07;;;;;;;12.27;11.07;;;2.10;40.80;;;;;;10402441;28;20707;-71
2023/12/03 09:06:11;;;;;;;12.23;11.03;;;2.20;40.40;;;;;;10403555;28;20275;-70
2023/12/03 09:11:14;;;;;;;12.77;11.47;;;2.10;40.40;;;;;;10402588;28;20795;-70
2023/12/03 09:16:20;;;;;;;13.00;11.70;;;2.10;40.40;;;;;;10402252;28;20598;-71
2023/12/03 09:21:23;;;;;;;12.73;11.47;;;2.20;40.40;;;;;;10402373;28;20738;-71
2023/12/03 09:26:27;;;;;;;11.67;10.53;;;2.20;40.40;;;;;;10402706;28;20312;-71
2023/12/03 09:31:32;;;;;;;12.30;10.13;;;2.20;40.40;;;;;;10402356;28;20225;-70
2023/12/03 09:36:36;;;;;;;11.00;9.90;;;2.20;40.40;;;;;;10402439;28;20229;-71
2023/12/03 09:41:47;;;;;;;9.40;8.30;;;2.20;40.80;;;;;;10402080;28;20236;-71
2023/12/03 09:46:54;;;;;;;9.33;8.03;;;2.30;40.60;;;;;;10401160;28;20719;-71
2023/12/03 09:52:00;;;;;;;9.20;7.23;;;2.40;40.60;;;;;;10401855;28;20233;-71
2023/12/03 09:57:06;;;;;;;9.13;8.17;;;2.60;40.80;;;;;;10400626;28;20237;-71
2023/12/03 10:02:13;;;;;;;10.20;8.17;;;2.70;40.90;;;;;;10401194;28;20236;-71
2023/12/03 10:07:17;;;;;;;7.30;6.50;;;2.70;40.40;;;;;;10410028;28;20237;-71
2023/12/03 10:12:22;;;;;;;7.17;6.47;;;2.80;40.60;;;;;;10409475;28;20911;-71
2023/12/03 10:17:27;;;;;;;6.23;5.63;;;2.80;40.40;;;;;;10402341;28;20229;-72
2023/12/03 10:22:32;;;;;;;7.73;7.00;;;2.80;40.50;;;;;;10396181;28;20296;-72
2023/12/03 10:27:35;;;;;;;7.10;6.40;;;2.80;40.90;;;;;;10396330;28;20379;-72
2023/12/03 10:32:40;;;;;;;7.30;6.60;;;3.00;41.10;;;;;;10397935;28;20613;-72
2023/12/03 10:37:43;;;;;;;6.47;5.87;;;3.10;40.80;;;;;;10399247;28;20288;-72
2023/12/03 10:42:47;;;;;;;6.47;5.87;;;3.30;41.00;;;;;;10392237;28;20300;-72
2023/12/03 10:47:58;;;;;;;7.33;6.63;;;3.30;40.30;;;;;;10389953;28;20648;-72
2023/12/03 10:53:02;;;;;;;8.47;7.57;;;3.40;39.80;;;;;;10395576;28;20275;-72
2023/12/03 10:58:06;;;;;;;9.47;8.40;;;3.40;40.40;;;;;;10398156;28;20701;-72
2023/12/03 11:03:15;;;;;;;8.33;7.30;;;3.40;40.10;;;;;;10398773;28;20233;-72
2023/12/03 11:08:22;;;;;;;8.77;7.87;;;3.40;39.60;;;;;;10396188;28;20241;-72
2023/12/03 11:13:28;;;;;;;9.67;7.40;;;3.50;39.90;;;;;;10393462;28;20284;-72
2023/12/03 11:18:52;;;;;;;8.70;7.80;;;3.60;40.50;;;;;;10398387;28;20245;-72
2023/12/03 11:24:25;;;;;;;9.47;8.57;;;3.60;39.80;;;;;;10399100;28;20232;-74
2023/12/03 11:29:46;;;;;;;6.77;6.00;;;3.80;39.80;;;;;;10393159;28;20694;-72
2023/12/03 11:35:00;;;;;;;7.40;6.70;;;4.00;38.80;;;;;;10382399;28;20245;-74
2023/12/03 11:40:09;;;;;;;6.43;5.83;;;4.00;38.90;;;;;;10387708;28;20240;-75
2023/12/03 11:45:21;;;;;;;6.80;6.20;;;4.00;39.20;;;;;;10380129;28;20241;-76
2023/12/03 11:50:26;;;;;;;7.17;6.47;;;3.90;38.70;;;;;;10381104;28;20329;-76
2023/12/03 11:55:34;;;;;;;7.80;7.00;;;3.80;39.30;;;;;;10376727;28;20288;-75
2023/12/03 12:00:39;;;;;;;6.87;6.23;;;3.70;39.60;;;;;;10387763;28;20766;-76
2023/12/03 12:05:48;;;;;;;10.03;8.90;;;3.70;39.80;;;;;;10381814;28;20240;-76
2023/12/03 12:10:52;;;;;;;7.97;7.17;;;3.60;39.20;;;;;;10379828;28;20258;-76
2023/12/03 12:15:57;;;;;;;7.93;7.13;;;3.70;40.10;;;;;;10388798;28;20782;-74
2023/12/03 12:21:10;;;;;;;10.67;9.00;;;3.80;40.10;;;;;;10392049;28;20232;-74
2023/12/03 12:26:14;;;;;;;9.67;8.40;;;3.80;39.10;;;;;;10390907;28;20226;-75
2023/12/03 12:31:19;;;;;;;9.00;7.57;;;3.90;40.10;;;;;;10389158;28;20228;-74
2023/12/03 12:36:24;;;;;;;10.73;9.10;;;4.00;39.80;;;;;;10390544;28;20359;-75
2023/12/03 12:41:37;;;;;;;10.73;7.90;;;4.10;39.60;;;;;;10388944;28;20237;-74
2023/12/03 12:46:52;;;;;;;8.30;7.50;;;4.20;39.00;;;;;;10392865;28;20744;-74
2023/12/03 12:52:10;;;;;;;9.17;8.27;;;4.30;38.40;;;;;;10387512;28;20234;-74
2023/12/03 12:57:14;;;;;;;8.97;8.10;;;4.20;38.20;;;;;;10386052;28;20301;-76
2023/12/03 13:02:20;;;;;;;8.67;7.87;;;4.30;39.40;;;;;;10382088;28;20221;-74
2023/12/03 13:07:25;;;;;;;8.57;7.77;;;4.10;39.10;;;;;;10382655;28;20259;-74
2023/12/03 13:12:28;;;;;;;9.23;8.33;;;3.90;38.70;;;;;;10380267;28;20237;-74
2023/12/03 13:17:32;;;;;;;9.23;8.13;;;3.70;39.00;;;;;;10393822;28;20280;-74
2023/12/03 13:22:37;;;;;;;8.77;7.97;;;3.60;39.50;;;;;;10391621;28;20237;-74
2023/12/03 13:27:41;;;;;;;8.97;8.07;;;3.60;39.30;;;;;;10398938;28;20334;-73
2023/12/03 13:32:45;;;;;;;8.87;7.67;;;3.70;39.40;;;;;;10390009;28;20269;-73
2023/12/03 13:37:50;;;;;;;9.57;8.57;;;3.80;40.70;;;;;;10396070;28;20781;-73
2023/12/03 13:42:54;;;;;;;10.87;9.77;;;3.90;40.20;;;;;;10403651;28;20331;-72
2023/12/03 13:47:57;;;;;;;11.10;10.00;;;3.90;39.70;;;;;;10399381;28;20620;-75
2023/12/03 13:53:02;;;;;;;12.07;10.87;;;4.00;39.60;;;;;;10396432;28;20753;-76
2023/12/03 13:58:05;;;;;;;10.50;9.47;;;4.00;39.30;;;;;;10395479;28;20243;-76
2023/12/03 14:03:09;;;;;;;10.87;9.73;;;4.10;39.50;;;;;;10396768;28;20317;-75
2023/12/03 14:08:13;;;;;;;10.13;9.20;;;3.90;39.10;;;;;;10400892;28;20275;-75
2023/12/03 14:13:16;;;;;;;11.90;10.77;;;3.90;39.40;;;;;;10401701;28;20803;-75
2023/12/03 14:18:19;;;;;;;11.03;10.03;;;3.90;39.50;;;;;;10395232;28;20606;-75
2023/12/03 14:23:24;;;;;;;11.90;10.70;;;3.90;39.40;;;;;;10398528;28;20233;-75
2023/12/03 14:28:28;;;;;;;11.57;10.43;;;3.90;39.10;;;;;;10403354;28;20229;-73
2023/12/03 14:33:31;;;;;;;12.10;10.80;;;3.90;39.40;;;;;;10388430;28;20950;-74
2023/12/03 14:38:36;;;;;;;11.40;10.27;;;3.90;39.40;;;;;;10389864;28;20232;-74
2023/12/03 14:43:40;;;;;;;11.33;10.23;;;3.90;39.40;;;;;;10392972;28;20237;-74
2023/12/03 14:48:43;;;;;;;14.40;12.83;;;3.90;40.70;;;;;;10407764;28;20711;-74
2023/12/03 14:53:49;;;;;;;17.63;12.73;;;3.90;39.90;;;;;;10406571;28;20245;-74
2023/12/03 14:58:53;;;;;;;14.77;13.27;;;4.00;38.90;;;;;;10402134;28;20240;-75
2023/12/03 15:03:56;;;;;;;18.33;16.43;;;3.90;38.80;;;;;;10394681;28;20791;-74
2023/12/03 15:09:01;;;;;;;19.47;17.40;;;3.80;38.50;;;;;;10385814;28;20237;-75
2023/12/03 15:14:04;;;;;;;21.07;18.93;;;3.70;38.30;;;;;;10394122;28;20261;-75
2023/12/03 15:19:08;;;;;;;17.57;15.77;;;3.60;38.30;;;;;;10403995;28;20601;-77
2023/12/03 15:24:14;;;;;;;14.87;13.27;;;3.50;38.10;;;;;;10405910;28;20299;-75
2023/12/03 15:29:17;;;;;;;16.77;14.43;;;3.30;37.80;;;;;;10382422;28;20233;-74
2023/12/03 15:34:21;;;;;;;18.97;17.00;;;3.20;38.00;;;;;;10373398;28;20818;-74
2023/12/03 15:39:26;;;;;;;16.63;14.63;;;3.10;38.00;;;;;;10384132;28;20237;-74
2023/12/03 15:44:29;;;;;;;14.93;13.33;;;3.00;37.60;;;;;;10370556;28;20315;-75
2023/12/03 15:49:32;;;;;;;13.97;12.63;;;2.80;37.50;;;;;;10369348;28;20964;-75
2023/12/03 15:54:38;;;;;;;14.57;13.10;;;2.70;37.40;;;;;;10376762;28;20226;-76
2023/12/03 15:59:41;;;;;;;20.90;18.20;;;2.50;37.20;;;;;;10392480;28;20230;-74
2023/12/03 16:04:45;;;;;;;38.07;25.43;;;2.40;37.20;;;;;;10394468;28;20229;-74
2023/12/03 16:09:50;;;;;;;76.90;46.90;;;2.20;36.90;;;;;;10387961;28;21585;-73
2023/12/03 16:14:53;;;;;;;56.87;35.13;;;2.10;37.10;;;;;;10379234;28;20265;-75
2023/12/03 16:19:56;;;;;;;28.87;20.70;;;1.90;37.00;;;;;;10389508;28;20235;-75
2023/12/03 16:25:02;;;;;;;25.03;18.73;;;1.80;37.00;;;;;;10397217;28;20595;-75
2023/12/03 16:30:07;;;;;;;20.73;17.73;;;1.70;36.80;;;;;;10398391;28;20291;-76
2023/12/03 16:35:11;;;;;;;16.60;14.67;;;1.60;36.60;;;;;;10394349;28;20244;-75
2023/12/03 16:40:21;;;;;;;17.23;14.50;;;1.40;37.60;;;;;;10404946;28;20283;-75
2023/12/03 16:45:25;;;;;;;16.63;14.17;;;1.30;36.90;;;;;;10403222;28;20261;-75
2023/12/03 16:50:29;;;;;;;16.97;13.90;;;1.30;37.20;;;;;;10402707;28;20236;-75
2023/12/03 16:55:33;;;;;;;16.10;13.03;;;1.20;37.00;;;;;;10402040;28;20234;-74
2023/12/03 17:00:36;;;;;;;24.83;21.07;;;1.10;36.90;;;;;;10402264;28;20239;-75
2023/12/03 17:05:40;;;;;;;26.70;20.30;;;1.00;36.90;;;;;;10398517;28;20241;-74
2023/12/03 17:10:44;;;;;;;27.87;20.13;;;0.90;36.70;;;;;;10398459;28;20699;-74
2023/12/03 17:15:48;;;;;;;29.03;22.43;;;0.80;36.50;;;;;;10390848;28;20235;-74
2023/12/03 17:20:51;;;;;;;31.37;24.60;;;0.70;36.80;;;;;;10398347;28;20597;-75
2023/12/03 17:25:55;;;;;;;24.57;19.63;;;0.60;36.70;;;;;;10403431;28;20229;-75
2023/12/03 17:30:58;;;;;;;24.20;19.00;;;0.50;35.90;;;;;;10403809;28;20236;-75
2023/12/03 17:36:02;;;;;;;20.63;16.17;;;0.20;35.80;;;;;;10405204;28;20245;-75
2023/12/03 17:41:06;;;;;;;20.33;15.43;;;-0.10;35.80;;;;;;10400590;28;20231;-75
2023/12/03 17:46:10;;;;;;;16.87;12.70;;;-0.30;35.50;;;;;;10399454;28;20226;-75
2023/12/03 17:51:13;;;;;;;14.10;11.13;;;-0.40;36.20;;;;;;10402693;28;20308;-76
2023/12/03 17:56:17;;;;;;;15.23;12.67;;;-0.60;36.30;;;;;;10387664;28;20253;-74
2023/12/03 18:01:21;;;;;;;17.30;13.23;;;-0.70;36.30;;;;;;10397199;28;20233;-74
2023/12/03 18:06:25;;;;;;;16.50;13.10;;;-0.70;36.60;;;;;;10384998;28;20229;-75
2023/12/03 18:11:30;;;;;;;21.90;15.53;;;-0.70;36.80;;;;;;10392523;28;20244;-75
2023/12/03 18:16:33;;;;;;;24.50;18.30;;;-0.80;36.10;;;;;;10387098;28;20320;-75
2023/12/03 18:21:37;;;;;;;19.87;15.23;;;-0.90;35.30;;;;;;10382531;28;20776;-73
2023/12/03 18:26:41;;;;;;;18.97;15.70;;;-1.20;35.70;;;;;;10388500;28;20238;-73
2023/12/03 18:31:45;;;;;;;17.53;14.13;;;-1.40;35.90;;;;;;10384903;28;20233;-73
2023/12/03 18:36:48;;;;;;;16.37;12.70;;;-1.50;36.00;;;;;;10391209;28;20245;-74
2023/12/03 18:41:53;;;;;;;17.10;12.10;;;-1.60;36.10;;;;;;10391240;28;20248;-73
2023/12/03 18:46:56;;;;;;;15.33;12.53;;;-1.60;35.90;;;;;;10395054;28;20337;-73
2023/12/03 18:52:02;;;;;;;16.93;11.93;;;-1.70;35.80;;;;;;10392836;28;20231;-73
2023/12/03 18:57:07;;;;;;;15.23;11.57;;;-1.70;35.60;;;;;;10392476;28;20270;-73
2023/12/03 19:02:11;;;;;;;17.47;12.10;;;-1.80;35.30;;;;;;10390981;28;20238;-73
2023/12/03 19:07:15;;;;;;;19.00;12.00;;;-1.90;35.40;;;;;;10382140;28;20238;-74
2023/12/03 19:12:20;;;;;;;18.93;10.53;;;-2.00;35.60;;;;;;10388783;28;20222;-73
2023/12/03 19:17:23;;;;;;;18.83;11.60;;;-2.10;35.30;;;;;;10383670;28;20267;-73
2023/12/03 19:22:27;;;;;;;20.57;12.23;;;-2.20;35.30;;;;;;10392080;28;20304;-73
2023/12/03 19:27:32;;;;;;;24.33;13.83;;;-2.30;35.10;;;;;;10385411;28;20325;-73
2023/12/03 19:32:35;;;;;;;33.10;17.57;;;-2.40;34.70;;;;;;10384367;28;20238;-74
2023/12/03 19:37:39;;;;;;;23.30;13.70;;;-2.60;34.40;;;;;;10386920;28;20319;-74
2023/12/03 19:42:43;;;;;;;24.40;14.80;;;-2.60;34.40;;;;;;10391229;28;20237;-73
2023/12/03 19:47:47;;;;;;;24.27;14.20;;;-2.90;34.30;;;;;;10390992;28;20328;-74
2023/12/03 19:52:50;;;;;;;19.20;12.67;;;-3.00;34.30;;;;;;10395747;28;20244;-74
2023/12/03 19:57:57;;;;;;;25.17;15.20;;;-3.10;34.50;;;;;;10390395;28;20249;-75
2023/12/03 20:03:00;;;;;;;22.97;13.90;;;-3.40;34.40;;;;;;10393499;28;20355;-74
2023/12/03 20:08:05;;;;;;;27.10;15.20;;;-3.50;34.80;;;;;;10388864;28;20312;-74
2023/12/03 20:13:10;;;;;;;18.37;11.83;;;-3.50;34.70;;;;;;10391213;28;20607;-74
2023/12/03 20:18:13;;;;;;;20.27;12.37;;;-3.70;34.80;;;;;;10395654;28;20320;-75
2023/12/03 20:23:17;;;;;;;21.87;13.00;;;-3.80;34.70;;;;;;10393695;28;20234;-75
2023/12/03 20:28:22;;;;;;;19.43;11.67;;;-4.00;34.80;;;;;;10387793;28;20731;-74
2023/12/03 20:33:25;;;;;;;19.30;11.90;;;-4.10;35.30;;;;;;10387249;28;20795;-74
2023/12/03 20:38:30;;;;;;;18.03;12.43;;;-4.10;35.30;;;;;;10383674;28;20237;-73
2023/12/03 20:43:34;;;;;;;25.03;13.77;;;-4.10;35.30;;;;;;10390458;28;20261;-73
2023/12/03 20:48:38;;;;;;;21.63;12.30;;;-4.20;34.90;;;;;;10385554;28;20758;-73
2023/12/03 20:53:41;;;;;;;22.77;12.93;;;-4.30;35.10;;;;;;10378818;28;20325;-74
2023/12/03 20:58:46;;;;;;;18.60;11.47;;;-4.50;35.00;;;;;;10386443;28;20233;-73
2023/12/03 21:03:49;;;;;;;15.43;9.57;;;-4.70;34.80;;;;;;10382978;28;20735;-73
2023/12/03 21:08:54;;;;;;;16.50;9.93;;;-4.80;35.10;;;;;;10388415;28;20238;-73
2023/12/03 21:13:58;;;;;;;15.10;8.80;;;-5.00;35.40;;;;;;10385735;28;20241;-73
2023/12/03 21:19:01;;;;;;;31.93;12.40;;;-4.90;35.70;;;;;;10395896;28;20246;-73
2023/12/03 21:24:05;;;;;;;20.57;10.73;;;-4.90;36.00;;;;;;10393024;28;20261;-73
2023/12/03 21:29:10;;;;;;;16.40;9.73;;;-4.80;35.70;;;;;;10384972;28;20722;-73
2023/12/03 21:34:13;;;;;;;19.13;11.17;;;-4.70;35.30;;;;;;10378730;28;20238;-73
2023/12/03 21:39:16;;;;;;;17.17;9.87;;;-4.70;35.20;;;;;;10392119;28;20261;-74
2023/12/03 21:44:21;;;;;;;18.33;10.20;;;-4.80;35.10;;;;;;10391474;28;20241;-73
2023/12/03 21:49:24;;;;;;;18.73;10.77;;;-4.90;35.10;;;;;;10388297;28;20245;-73
2023/12/03 21:54:28;;;;;;;27.07;13.23;;;-5.00;35.10;;;;;;10391920;28;20248;-74
2023/12/03 21:59:33;;;;;;;20.87;11.47;;;-5.00;35.30;;;;;;10391792;28;20663;-73
2023/12/03 22:04:36;;;;;;;17.37;10.37;;;-5.00;35.40;;;;;;10399518;28;20241;-74
2023/12/03 22:09:39;;;;;;;15.73;9.80;;;-5.00;35.50;;;;;;10394237;28;20230;-74
2023/12/03 22:14:44;;;;;;;16.83;10.90;;;-5.00;35.50;;;;;;10396002;28;20236;-74
2023/12/03 22:19:48;;;;;;;14.67;9.97;;;-5.10;34.80;;;;;;10399719;28;20853;-73
2023/12/03 22:24:52;;;;;;;16.47;9.53;;;-5.20;34.90;;;;;;10397185;28;20243;-74
2023/12/03 22:29:57;;;;;;;14.83;9.27;;;-5.30;35.10;;;;;;10400382;28;20291;-73
2023/12/03 22:35:13;;;;;;;12.33;8.67;;;-5.30;35.10;;;;;;10392925;28;20564;-73
2023/12/03 22:40:16;;;;;;;17.63;9.23;;;-5.40;35.00;;;;;;10400010;28;20329;-73
2023/12/03 22:45:20;;;;;;;13.03;8.77;;;-5.40;35.10;;;;;;10401364;28;20337;-74
2023/12/03 22:50:24;;;;;;;13.93;8.27;;;-5.30;35.10;;;;;;10395302;28;20225;-74
2023/12/03 22:55:31;;;;;;;14.57;8.73;;;-5.30;35.20;;;;;;10400121;28;20233;-73
2023/12/03 23:00:36;;;;;;;16.87;9.60;;;-5.40;35.20;;;;;;10400136;28;20549;-73
2023/12/03 23:05:39;;;;;;;14.23;8.90;;;-5.30;35.20;;;;;;10399960;28;20299;-74
2023/12/03 23:10:42;;;;;;;16.07;9.00;;;-5.30;35.30;;;;;;10399425;28;20236;-73
2023/12/03 23:15:47;;;;;;;13.70;8.33;;;-5.30;35.30;;;;;;10399513;28;20321;-74
2023/12/03 23:20:50;;;;;;;11.63;8.00;;;-5.30;35.60;;;;;;10399026;28;20327;-74
2023/12/03 23:25:53;;;;;;;12.30;7.90;;;-5.30;35.80;;;;;;10399606;28;20262;-74
2023/12/03 23:30:57;;;;;;;11.23;7.17;;;-5.30;35.70;;;;;;10397062;28;20244;-73
2023/12/03 23:36:01;;;;;;;9.87;6.87;;;-5.20;35.60;;;;;;10399066;28;20241;-74
2023/12/03 23:41:08;;;;;;;10.83;7.30;;;-5.20;35.40;;;;;;10396523;28;20265;-73
2023/12/03 23:46:13;;;;;;;14.23;7.40;;;-5.20;35.00;;;;;;10398337;28;20252;-74
2023/12/03 23:51:17;;;;;;;9.67;7.00;;;-5.20;35.10;;;;;;10398734;28;20321;-74
2023/12/03 23:56:21;;;;;;;12.97;7.10;;;-5.30;35.10;;;;;;10397654;28;20268;-73
